createdAt,value
2022-10-22T00:00:12.591Z,12.80
2022-10-22T00:02:40.285Z,12.45
2022-10-22T00:05:07.480Z,12.70
2022-10-22T00:07:34.354Z,13.57
2022-10-22T00:10:01.401Z,13.82
2022-10-22T00:12:28.459Z,14.10
2022-10-22T00:14:55.294Z,14.02
2022-10-22T00:17:21.954Z,14.20
2022-10-22T00:19:48.599Z,14.00
2022-10-22T00:22:15.863Z,13.43
2022-10-22T00:24:43.266Z,13.10
2022-10-22T00:27:12.137Z,12.43
2022-10-22T00:29:38.720Z,12.65
2022-10-22T00:32:06.092Z,12.43
2022-10-22T00:34:33.842Z,12.57
2022-10-22T00:37:00.672Z,12.60
2022-10-22T00:39:28.874Z,12.80
2022-10-22T00:41:57.239Z,12.48
2022-10-22T00:45:02.426Z,12.52
2022-10-22T00:47:34.209Z,12.40
2022-10-22T00:52:34.148Z,13.48
2022-10-22T00:55:01.525Z,12.45
2022-10-22T00:57:28.776Z,12.35
2022-10-22T00:59:58.235Z,12.52
2022-10-22T01:02:24.904Z,13.23
2022-10-22T01:04:51.503Z,12.55
2022-10-22T01:07:21.549Z,11.98
2022-10-22T01:09:59.869Z,11.63
2022-10-22T01:12:40.653Z,11.75
2022-10-22T01:15:25.995Z,11.38
2022-10-22T01:18:02.271Z,11.00
2022-10-22T01:23:17.133Z,10.43
2022-10-22T01:25:57.195Z,10.27
2022-10-22T01:28:53.631Z,11.20
2022-10-22T01:31:22.472Z,10.02
2022-10-22T01:33:51.493Z,11.80
2022-10-22T01:36:20.152Z,10.65
2022-10-22T01:38:48.173Z,11.70
2022-10-22T01:41:15.230Z,11.13
2022-10-22T01:43:42.605Z,10.80
2022-10-22T01:46:11.642Z,10.98
2022-10-22T01:48:54.863Z,10.95
2022-10-22T01:51:38.361Z,10.63
2022-10-22T01:54:31.103Z,11.35
2022-10-22T01:57:22.263Z,10.27
2022-10-22T02:00:14.479Z,10.73
2022-10-22T02:02:43.932Z,11.02
2022-10-22T02:05:14.134Z,10.32
2022-10-22T02:07:48.061Z,10.77
2022-10-22T02:10:17.218Z,10.90
2022-10-22T02:12:49.244Z,10.95
2022-10-22T02:15:18.937Z,10.65
2022-10-22T02:17:47.176Z,10.57
2022-10-22T02:20:19.505Z,10.68
2022-10-22T02:22:47.204Z,11.23
2022-10-22T02:25:14.531Z,10.30
2022-10-22T02:27:55.318Z,10.48
2022-10-22T02:30:23.237Z,10.82
2022-10-22T02:32:49.743Z,10.55
2022-10-22T02:35:22.274Z,11.50
2022-10-22T02:37:50.642Z,11.18
2022-10-22T02:40:18.301Z,10.68
2022-10-22T02:42:50.833Z,11.05
2022-10-22T02:45:20.689Z,11.15
2022-10-22T02:47:47.411Z,10.68
2022-10-22T02:50:14.135Z,11.23
2022-10-22T02:52:41.042Z,11.23
2022-10-22T02:55:08.348Z,10.48
2022-10-22T02:57:36.794Z,10.48
2022-10-22T03:00:05.649Z,10.85
2022-10-22T03:02:32.211Z,10.43
2022-10-22T03:04:59.596Z,9.43
2022-10-22T03:07:26.277Z,10.45
2022-10-22T03:09:53.092Z,10.00
2022-10-22T03:12:20.513Z,11.15
2022-10-22T03:14:47.088Z,10.70
2022-10-22T03:17:14.086Z,10.57
2022-10-22T03:19:40.864Z,10.35
2022-10-22T03:22:14.069Z,10.55
2022-10-22T03:24:44.378Z,10.40
2022-10-22T03:27:13.119Z,10.48
2022-10-22T03:29:41.316Z,10.18
2022-10-22T03:32:08.088Z,10.63
2022-10-22T03:34:34.927Z,10.48
2022-10-22T03:37:02.513Z,11.52
2022-10-22T03:39:31.875Z,10.55
2022-10-22T03:41:58.656Z,10.75
2022-10-22T03:44:26.077Z,9.57
2022-10-22T03:46:54.843Z,9.10
2022-10-22T03:49:24.035Z,9.75
2022-10-22T03:51:50.712Z,8.95
2022-10-22T03:54:17.467Z,9.20
2022-10-22T03:56:44.114Z,9.65
2022-10-22T03:59:10.733Z,9.27
2022-10-22T04:01:37.418Z,8.38
2022-10-22T04:04:04.140Z,9.88
2022-10-22T04:06:31.178Z,9.10
2022-10-22T04:08:57.886Z,9.02
2022-10-22T04:11:24.532Z,8.93
2022-10-22T04:13:51.126Z,8.93
2022-10-22T04:16:21.812Z,8.25
2022-10-22T04:18:50.166Z,9.48
2022-10-22T04:21:18.820Z,8.98
2022-10-22T04:23:52.003Z,9.13
2022-10-22T04:26:19.611Z,8.95
2022-10-22T04:28:47.830Z,10.00
2022-10-22T04:31:23.097Z,9.32
2022-10-22T04:33:55.815Z,9.38
2022-10-22T04:36:24.991Z,9.13
2022-10-22T04:38:56.915Z,9.50
2022-10-22T04:41:28.520Z,9.55
2022-10-22T04:43:56.232Z,10.35
2022-10-22T04:46:23.913Z,10.27
2022-10-22T04:48:51.757Z,9.27
2022-10-22T04:51:20.482Z,11.48
2022-10-22T04:53:47.543Z,11.38
2022-10-22T04:56:27.327Z,19.08
2022-10-22T04:58:57.870Z,13.93
2022-10-22T05:01:29.755Z,13.10
2022-10-22T05:03:58.461Z,13.48
2022-10-22T05:06:25.988Z,17.60
2022-10-22T05:08:58.598Z,17.55
2022-10-22T05:11:28.585Z,17.83
2022-10-22T05:14:00.759Z,16.92
2022-10-22T05:16:29.422Z,16.23
